sensor_id;sensor_type;location;lat;lon;timestamp;pressure;altitude;pressure_sealevel;temperature;humidity
23318;BME280;11831;55.918;37.746;2023-04-05T00:01:30;99603.88;;;8.11;0.00
23318;BME280;11831;55.918;37.746;2023-04-05T00:03:57;99611.22;;;8.35;0.00
23318;BME280;11831;55.918;37.746;2023-04-05T00:06:24;99601.59;;;8.15;0.00
23318;BME280;11831;55.918;37.746;2023-04-05T00:08:51;99594.25;;;8.03;0.00
23318;BME280;11831;55.918;37.746;2023-04-05T00:11:20;99602.03;;;7.92;0.00
23318;BME280;11831;55.918;37.746;2023-04-05T00:13:48;99599.78;;;7.95;0.00
23318;BME280;11831;55.918;37.746;2023-04-05T00:16:14;99597.31;;;7.94;0.00
23318;BME280;11831;55.918;37.746;2023-04-05T00:18:41;99591.41;;;7.92;0.00
23318;BME280;11831;55.918;37.746;2023-04-05T00:21:15;99606.75;;;8.09;0.00
23318;BME280;11831;55.918;37.746;2023-04-05T00:23:41;99598.53;;;8.11;0.00
23318;BME280;11831;55.918;37.746;2023-04-05T00:26:10;99598.34;;;7.93;0.00
23318;BME280;11831;55.918;37.746;2023-04-05T00:28:36;99598.34;;;8.13;0.00
23318;BME280;11831;55.918;37.746;2023-04-05T00:31:03;99601.78;;;8.26;0.00
23318;BME280;11831;55.918;37.746;2023-04-05T00:33:29;99586.88;;;7.92;0.00
23318;BME280;11831;55.918;37.746;2023-04-05T00:35:55;99593.22;;;8.11;0.00
23318;BME280;11831;55.918;37.746;2023-04-05T00:38:21;99597.56;;;7.59;0.00
23318;BME280;11831;55.918;37.746;2023-04-05T00:40:50;99604.50;;;8.00;0.00
23318;BME280;11831;55.918;37.746;2023-04-05T00:43:16;99605.28;;;8.14;0.00
23318;BME280;11831;55.918;37.746;2023-04-05T00:45:42;99602.69;;;7.74;0.00
23318;BME280;11831;55.918;37.746;2023-04-05T00:48:09;99600.44;;;7.71;0.00
23318;BME280;11831;55.918;37.746;2023-04-05T00:50:35;99593.66;;;7.82;0.00
23318;BME280;11831;55.918;37.746;2023-04-05T00:53:01;99595.09;;;7.64;0.00
23318;BME280;11831;55.918;37.746;2023-04-05T00:55:28;99601.25;;;7.58;0.00
23318;BME280;11831;55.918;37.746;2023-04-05T00:57:54;99592.84;;;7.35;0.00
23318;BME280;11831;55.918;37.746;2023-04-05T01:00:20;99603.31;;;7.69;0.00
23318;BME280;11831;55.918;37.746;2023-04-05T01:02:48;99596.13;;;7.57;0.00
23318;BME280;11831;55.918;37.746;2023-04-05T01:10:41;99601.84;;;7.47;0.00
23318;BME280;11831;55.918;37.746;2023-04-05T01:13:09;99609.22;;;7.38;0.00
23318;BME280;11831;55.918;37.746;2023-04-05T01:15:35;99609.59;;;7.29;0.00
23318;BME280;11831;55.918;37.746;2023-04-05T01:18:01;99607.59;;;7.37;0.00
23318;BME280;11831;55.918;37.746;2023-04-05T01:20:29;99606.03;;;6.82;0.00
23318;BME280;11831;55.918;37.746;2023-04-05T01:30:19;99611.47;;;6.67;0.00
23318;BME280;11831;55.918;37.746;2023-04-05T01:38:01;99600.78;;;6.47;0.00
23318;BME280;11831;55.918;37.746;2023-04-05T01:40:28;99601.50;;;6.35;0.00
23318;BME280;11831;55.918;37.746;2023-04-05T01:42:56;99614.56;;;6.71;0.00
23318;BME280;11831;55.918;37.746;2023-04-05T01:45:22;99607.75;;;6.55;0.00
23318;BME280;11831;55.918;37.746;2023-04-05T01:47:48;99614.09;;;6.61;0.00
23318;BME280;11831;55.918;37.746;2023-04-05T01:50:15;99612.37;;;6.40;0.00
23318;BME280;11831;55.918;37.746;2023-04-05T01:52:42;99614.09;;;6.19;0.00
23318;BME280;11831;55.918;37.746;2023-04-05T01:55:08;99612.41;;;6.12;0.00
23318;BME280;11831;55.918;37.746;2023-04-05T01:57:34;99613.91;;;6.21;0.00
23318;BME280;11831;55.918;37.746;2023-04-05T02:00:00;99610.69;;;5.98;0.00
23318;BME280;11831;55.918;37.746;2023-04-05T02:02:26;99611.94;;;6.02;0.00
23318;BME280;11831;55.918;37.746;2023-04-05T02:04:52;99616.53;;;5.65;0.00
23318;BME280;11831;55.918;37.746;2023-04-05T02:07:18;99617.25;;;6.02;0.00
23318;BME280;11831;55.918;37.746;2023-04-05T02:09:44;99628.91;;;6.07;0.00
23318;BME280;11831;55.918;37.746;2023-04-05T02:12:11;99617.69;;;6.05;0.00
23318;BME280;11831;55.918;37.746;2023-04-05T02:14:37;99615.66;;;6.07;0.00
23318;BME280;11831;55.918;37.746;2023-04-05T02:17:03;99619.66;;;6.25;0.00
23318;BME280;11831;55.918;37.746;2023-04-05T02:19:30;99617.56;;;6.13;0.00
23318;BME280;11831;55.918;37.746;2023-04-05T02:22:02;99629.66;;;6.22;0.00
23318;BME280;11831;55.918;37.746;2023-04-05T02:24:28;99632.09;;;6.59;0.00
23318;BME280;11831;55.918;37.746;2023-04-05T02:26:54;99636.97;;;6.55;0.00
23318;BME280;11831;55.918;37.746;2023-04-05T02:29:21;99637.59;;;6.57;0.00
23318;BME280;11831;55.918;37.746;2023-04-05T02:31:47;99635.72;;;6.44;0.00
23318;BME280;11831;55.918;37.746;2023-04-05T02:34:13;99635.94;;;6.49;0.00
23318;BME280;11831;55.918;37.746;2023-04-05T02:36:39;99644.41;;;6.32;0.00
23318;BME280;11831;55.918;37.746;2023-04-05T02:39:06;99651.31;;;6.61;0.00
23318;BME280;11831;55.918;37.746;2023-04-05T02:41:32;99653.91;;;6.47;0.00
23318;BME280;11831;55.918;37.746;2023-04-05T02:43:58;99646.00;;;6.67;0.00
23318;BME280;11831;55.918;37.746;2023-04-05T02:46:25;99642.22;;;6.90;0.00
23318;BME280;11831;55.918;37.746;2023-04-05T02:48:51;99651.25;;;6.13;0.00
23318;BME280;11831;55.918;37.746;2023-04-05T02:51:17;99651.94;;;6.63;0.00
23318;BME280;11831;55.918;37.746;2023-04-05T02:53:43;99647.56;;;6.48;0.00
23318;BME280;11831;55.918;37.746;2023-04-05T02:56:09;99647.81;;;6.53;0.00
23318;BME280;11831;55.918;37.746;2023-04-05T02:58:39;99654.47;;;6.84;0.00
23318;BME280;11831;55.918;37.746;2023-04-05T03:01:06;99650.81;;;6.92;0.00
23318;BME280;11831;55.918;37.746;2023-04-05T03:03:32;99656.94;;;6.85;0.00
23318;BME280;11831;55.918;37.746;2023-04-05T03:06:03;99652.25;;;6.46;0.00
23318;BME280;11831;55.918;37.746;2023-04-05T03:08:38;99648.59;;;6.47;0.00
23318;BME280;11831;55.918;37.746;2023-04-05T03:11:09;99659.66;;;6.58;0.00
23318;BME280;11831;55.918;37.746;2023-04-05T03:13:35;99664.44;;;6.34;0.00
23318;BME280;11831;55.918;37.746;2023-04-05T03:16:02;99665.63;;;7.07;0.00
23318;BME280;11831;55.918;37.746;2023-04-05T03:18:28;99656.59;;;6.54;0.00
23318;BME280;11831;55.918;37.746;2023-04-05T03:20:55;99667.69;;;6.71;0.00
23318;BME280;11831;55.918;37.746;2023-04-05T03:23:25;99670.59;;;6.76;0.00
23318;BME280;11831;55.918;37.746;2023-04-05T03:26:02;99659.22;;;6.95;0.00
23318;BME280;11831;55.918;37.746;2023-04-05T03:28:29;99663.25;;;6.78;0.00
23318;BME280;11831;55.918;37.746;2023-04-05T03:30:58;99665.00;;;6.64;0.00
23318;BME280;11831;55.918;37.746;2023-04-05T03:33:24;99664.72;;;6.46;0.00
23318;BME280;11831;55.918;37.746;2023-04-05T03:35:51;99674.00;;;6.01;0.00
23318;BME280;11831;55.918;37.746;2023-04-05T03:38:17;99668.63;;;6.15;0.00
23318;BME280;11831;55.918;37.746;2023-04-05T03:40:44;99677.62;;;6.21;0.00
23318;BME280;11831;55.918;37.746;2023-04-05T03:43:10;99673.56;;;6.25;0.00
23318;BME280;11831;55.918;37.746;2023-04-05T03:45:36;99681.91;;;5.94;0.00
23318;BME280;11831;55.918;37.746;2023-04-05T03:48:02;99684.88;;;5.84;0.00
23318;BME280;11831;55.918;37.746;2023-04-05T03:50:29;99687.44;;;5.93;0.00
23318;BME280;11831;55.918;37.746;2023-04-05T03:52:55;99688.09;;;5.37;0.00
23318;BME280;11831;55.918;37.746;2023-04-05T03:55:21;99698.56;;;5.24;0.00
23318;BME280;11831;55.918;37.746;2023-04-05T03:57:47;99699.72;;;5.36;0.00
23318;BME280;11831;55.918;37.746;2023-04-05T04:00:14;99703.47;;;5.63;0.00
23318;BME280;11831;55.918;37.746;2023-04-05T04:02:49;99702.44;;;5.85;0.00
23318;BME280;11831;55.918;37.746;2023-04-05T04:05:17;99707.66;;;5.79;0.00
23318;BME280;11831;55.918;37.746;2023-04-05T04:07:43;99708.38;;;6.09;0.00
23318;BME280;11831;55.918;37.746;2023-04-05T04:10:10;99702.25;;;5.87;0.00
23318;BME280;11831;55.918;37.746;2023-04-05T04:12:38;99709.91;;;5.97;0.00
23318;BME280;11831;55.918;37.746;2023-04-05T04:15:04;99718.87;;;5.53;0.00
23318;BME280;11831;55.918;37.746;2023-04-05T04:17:32;99719.72;;;5.81;0.00
23318;BME280;11831;55.918;37.746;2023-04-05T04:19:59;99717.97;;;5.88;0.00
23318;BME280;11831;55.918;37.746;2023-04-05T04:22:26;99725.50;;;6.06;0.00
23318;BME280;11831;55.918;37.746;2023-04-05T04:24:58;99721.34;;;6.18;0.00
23318;BME280;11831;55.918;37.746;2023-04-05T04:27:31;99727.03;;;6.15;0.00
23318;BME280;11831;55.918;37.746;2023-04-05T04:30:01;99725.47;;;6.56;0.00
23318;BME280;11831;55.918;37.746;2023-04-05T04:32:29;99719.97;;;6.98;0.00
23318;BME280;11831;55.918;37.746;2023-04-05T04:35:14;99724.31;;;7.06;0.00
23318;BME280;11831;55.918;37.746;2023-04-05T04:37:46;99722.06;;;7.09;0.00
23318;BME280;11831;55.918;37.746;2023-04-05T04:40:16;99734.75;;;6.73;0.00
23318;BME280;11831;55.918;37.746;2023-04-05T04:42:46;99725.31;;;6.64;0.00
23318;BME280;11831;55.918;37.746;2023-04-05T04:45:15;99728.34;;;6.05;0.00
23318;BME280;11831;55.918;37.746;2023-04-05T04:47:42;99731.78;;;6.89;0.00
23318;BME280;11831;55.918;37.746;2023-04-05T04:50:12;99734.16;;;7.12;0.00
23318;BME280;11831;55.918;37.746;2023-04-05T04:52:40;99738.59;;;6.64;0.00
23318;BME280;11831;55.918;37.746;2023-04-05T04:55:07;99731.69;;;7.10;0.00
23318;BME280;11831;55.918;37.746;2023-04-05T04:57:34;99727.53;;;7.56;0.00
23318;BME280;11831;55.918;37.746;2023-04-05T05:00:00;99728.19;;;7.84;0.00
23318;BME280;11831;55.918;37.746;2023-04-05T05:02:26;99729.22;;;7.90;0.00
23318;BME280;11831;55.918;37.746;2023-04-05T05:04:53;99731.69;;;7.71;0.00
23318;BME280;11831;55.918;37.746;2023-04-05T05:07:21;99726.50;;;7.43;0.00
23318;BME280;11831;55.918;37.746;2023-04-05T05:09:47;99725.13;;;7.81;0.00
23318;BME280;11831;55.918;37.746;2023-04-05T05:12:17;99726.75;;;7.82;0.00
23318;BME280;11831;55.918;37.746;2023-04-05T05:14:43;99732.44;;;7.59;0.00
23318;BME280;11831;55.918;37.746;2023-04-05T05:17:09;99733.69;;;7.63;0.00
23318;BME280;11831;55.918;37.746;2023-04-05T05:19:36;99733.53;;;7.84;0.00
23318;BME280;11831;55.918;37.746;2023-04-05T05:22:02;99737.38;;;7.62;0.00
23318;BME280;11831;55.918;37.746;2023-04-05T05:24:28;99746.16;;;7.62;0.00
23318;BME280;11831;55.918;37.746;2023-04-05T05:26:54;99750.22;;;7.38;0.00
23318;BME280;11831;55.918;37.746;2023-04-05T05:29:20;99757.59;;;7.50;0.00
23318;BME280;11831;55.918;37.746;2023-04-05T05:31:46;99755.16;;;7.48;0.00
23318;BME280;11831;55.918;37.746;2023-04-05T05:34:12;99760.34;;;7.69;0.00
23318;BME280;11831;55.918;37.746;2023-04-05T05:36:38;99754.22;;;8.22;0.00
23318;BME280;11831;55.918;37.746;2023-04-05T05:39:04;99755.59;;;7.65;0.00
23318;BME280;11831;55.918;37.746;2023-04-05T05:41:31;99750.56;;;8.09;0.00
23318;BME280;11831;55.918;37.746;2023-04-05T05:43:57;99757.34;;;8.65;0.00
23318;BME280;11831;55.918;37.746;2023-04-05T05:46:23;99762.19;;;7.95;0.00
23318;BME280;11831;55.918;37.746;2023-04-05T05:48:49;99759.81;;;8.40;0.00
23318;BME280;11831;55.918;37.746;2023-04-05T05:51:15;99750.53;;;7.76;0.00
23318;BME280;11831;55.918;37.746;2023-04-05T05:53:41;99756.09;;;8.15;0.00
23318;BME280;11831;55.918;37.746;2023-04-05T05:56:07;99759.53;;;7.75;0.00
23318;BME280;11831;55.918;37.746;2023-04-05T05:58:33;99759.06;;;7.59;0.00
23318;BME280;11831;55.918;37.746;2023-04-05T06:00:59;99770.13;;;7.62;0.00
23318;BME280;11831;55.918;37.746;2023-04-05T06:03:26;99771.75;;;7.57;0.00
23318;BME280;11831;55.918;37.746;2023-04-05T06:05:55;99775.19;;;7.37;0.00
23318;BME280;11831;55.918;37.746;2023-04-05T06:08:22;99779.19;;;7.81;0.00
23318;BME280;11831;55.918;37.746;2023-04-05T06:10:49;99774.88;;;7.67;0.00
23318;BME280;11831;55.918;37.746;2023-04-05T06:13:15;99779.03;;;8.09;0.00
23318;BME280;11831;55.918;37.746;2023-04-05T06:15:42;99774.88;;;7.67;0.00
23318;BME280;11831;55.918;37.746;2023-04-05T06:18:08;99773.69;;;8.22;0.00
23318;BME280;11831;55.918;37.746;2023-04-05T06:20:34;99767.97;;;8.19;0.00
23318;BME280;11831;55.918;37.746;2023-04-05T06:23:07;99774.34;;;8.44;0.00
23318;BME280;11831;55.918;37.746;2023-04-05T06:25:34;99779.03;;;8.82;0.00
23318;BME280;11831;55.918;37.746;2023-04-05T06:28:01;99774.28;;;9.48;0.00
23318;BME280;11831;55.918;37.746;2023-04-05T06:30:28;99775.62;;;9.26;0.00
23318;BME280;11831;55.918;37.746;2023-04-05T06:32:54;99775.62;;;9.26;0.00
23318;BME280;11831;55.918;37.746;2023-04-05T06:35:23;99783.28;;;9.60;0.00
23318;BME280;11831;55.918;37.746;2023-04-05T06:37:49;99782.88;;;9.06;0.00
23318;BME280;11831;55.918;37.746;2023-04-05T06:40:16;99777.25;;;9.33;0.00
23318;BME280;11831;55.918;37.746;2023-04-05T06:42:42;99783.31;;;9.47;0.00
23318;BME280;11831;55.918;37.746;2023-04-05T06:45:08;99786.03;;;10.17;0.00
23318;BME280;11831;55.918;37.746;2023-04-05T06:47:35;99769.00;;;10.43;0.00
23318;BME280;11831;55.918;37.746;2023-04-05T06:50:02;99781.38;;;9.68;0.00
23318;BME280;11831;55.918;37.746;2023-04-05T06:52:29;99782.47;;;9.60;0.00
23318;BME280;11831;55.918;37.746;2023-04-05T06:54:55;99780.00;;;9.58;0.00
23318;BME280;11831;55.918;37.746;2023-04-05T06:57:21;99790.13;;;9.50;0.00
23318;BME280;11831;55.918;37.746;2023-04-05T06:59:47;99788.22;;;8.99;0.00
23318;BME280;11831;55.918;37.746;2023-04-05T07:02:13;99782.19;;;9.30;0.00
23318;BME280;11831;55.918;37.746;2023-04-05T07:04:40;99784.19;;;9.41;0.00
23318;BME280;11831;55.918;37.746;2023-04-05T07:07:06;99791.53;;;9.90;0.00
23318;BME280;11831;55.918;37.746;2023-04-05T07:09:32;99783.53;;;9.46;0.00
23318;BME280;11831;55.918;37.746;2023-04-05T07:11:58;99778.84;;;9.79;0.00
23318;BME280;11831;55.918;37.746;2023-04-05T07:14:28;99779.78;;;9.98;0.00
23318;BME280;11831;55.918;37.746;2023-04-05T07:16:54;99788.09;;;10.15;0.00
23318;BME280;11831;55.918;37.746;2023-04-05T07:19:20;99785.56;;;10.76;0.00
23318;BME280;11831;55.918;37.746;2023-04-05T07:21:46;99773.66;;;10.91;0.00
23318;BME280;11831;55.918;37.746;2023-04-05T07:24:13;99772.00;;;10.53;0.00
23318;BME280;11831;55.918;37.746;2023-04-05T07:26:39;99776.28;;;10.79;0.00
23318;BME280;11831;55.918;37.746;2023-04-05T07:29:05;99772.97;;;10.58;0.00
23318;BME280;11831;55.918;37.746;2023-04-05T07:31:33;99776.66;;;10.82;0.00
23318;BME280;11831;55.918;37.746;2023-04-05T07:34:00;99773.06;;;10.88;0.00
23318;BME280;11831;55.918;37.746;2023-04-05T07:36:26;99783.34;;;10.23;0.00
23318;BME280;11831;55.918;37.746;2023-04-05T07:38:53;99795.31;;;10.08;0.00
23318;BME280;11831;55.918;37.746;2023-04-05T07:41:19;99793.31;;;10.35;0.00
23318;BME280;11831;55.918;37.746;2023-04-05T07:43:45;99797.56;;;10.67;0.00
23318;BME280;11831;55.918;37.746;2023-04-05T07:46:11;99790.47;;;10.54;0.00
23318;BME280;11831;55.918;37.746;2023-04-05T07:48:38;99795.84;;;11.34;0.00
23318;BME280;11831;55.918;37.746;2023-04-05T07:51:04;99795.06;;;11.64;0.00
23318;BME280;11831;55.918;37.746;2023-04-05T07:53:32;99793.34;;;11.69;0.00
23318;BME280;11831;55.918;37.746;2023-04-05T07:55:58;99792.75;;;11.67;0.00
23318;BME280;11831;55.918;37.746;2023-04-05T07:58:28;99796.28;;;11.49;0.00
23318;BME280;11831;55.918;37.746;2023-04-05T08:01:04;99790.16;;;11.79;0.00
23318;BME280;11831;55.918;37.746;2023-04-05T08:03:30;99785.41;;;11.93;0.00
23318;BME280;11831;55.918;37.746;2023-04-05T08:06:09;99791.94;;;12.27;0.00
23318;BME280;11831;55.918;37.746;2023-04-05T08:08:36;99785.13;;;12.24;0.00
23318;BME280;11831;55.918;37.746;2023-04-05T08:11:02;99782.25;;;12.26;0.00
23318;BME280;11831;55.918;37.746;2023-04-05T08:13:29;99784.47;;;12.40;0.00
23318;BME280;11831;55.918;37.746;2023-04-05T08:15:55;99783.50;;;12.23;0.00
23318;BME280;11831;55.918;37.746;2023-04-05T08:18:22;99793.50;;;12.93;0.00
23318;BME280;11831;55.918;37.746;2023-04-05T08:20:54;99791.06;;;12.15;0.00
23318;BME280;11831;55.918;37.746;2023-04-05T08:23:21;99791.03;;;12.56;0.00
23318;BME280;11831;55.918;37.746;2023-04-05T08:25:47;99795.09;;;13.05;0.00
23318;BME280;11831;55.918;37.746;2023-04-05T08:28:13;99791.97;;;12.97;0.00
23318;BME280;11831;55.918;37.746;2023-04-05T08:30:39;99785.66;;;13.26;0.00
23318;BME280;11831;55.918;37.746;2023-04-05T08:33:06;99783.22;;;12.90;0.00
23318;BME280;11831;55.918;37.746;2023-04-05T08:35:32;99784.12;;;13.07;0.00
23318;BME280;11831;55.918;37.746;2023-04-05T08:38:01;99789.88;;;12.87;0.00
23318;BME280;11831;55.918;37.746;2023-04-05T08:43:02;99791.44;;;13.75;0.00
23318;BME280;11831;55.918;37.746;2023-04-05T08:45:33;99796.56;;;13.77;0.00
23318;BME280;11831;55.918;37.746;2023-04-05T08:47:59;99793.34;;;14.20;0.00
23318;BME280;11831;55.918;37.746;2023-04-05T08:50:25;99798.41;;;14.33;0.00
23318;BME280;11831;55.918;37.746;2023-04-05T08:52:52;99795.22;;;14.36;0.00
23318;BME280;11831;55.918;37.746;2023-04-05T08:55:18;99792.75;;;14.46;0.00
23318;BME280;11831;55.918;37.746;2023-04-05T08:57:46;99789.38;;;14.39;0.00
23318;BME280;11831;55.918;37.746;2023-04-05T09:00:14;99794.06;;;14.99;0.00
23318;BME280;11831;55.918;37.746;2023-04-05T09:02:42;99785.13;;;14.77;0.00
23318;BME280;11831;55.918;37.746;2023-04-05T09:05:09;99788.81;;;14.71;0.00
23318;BME280;11831;55.918;37.746;2023-04-05T09:07:35;99794.59;;;14.63;0.00
23318;BME280;11831;55.918;37.746;2023-04-05T09:10:03;99791.69;;;15.03;0.00
23318;BME280;11831;55.918;37.746;2023-04-05T09:12:31;99794.09;;;14.66;0.00
23318;BME280;11831;55.918;37.746;2023-04-05T09:14:58;99796.41;;;15.12;0.00
23318;BME280;11831;55.918;37.746;2023-04-05T09:17:25;99797.56;;;15.00;0.00
23318;BME280;11831;55.918;37.746;2023-04-05T09:19:53;99801.47;;;14.53;0.00
23318;BME280;11831;55.918;37.746;2023-04-05T09:22:19;99798.50;;;14.88;0.00
23318;BME280;11831;55.918;37.746;2023-04-05T09:24:47;99787.34;;;14.80;0.00
23318;BME280;11831;55.918;37.746;2023-04-05T09:27:14;99795.69;;;14.45;0.00
23318;BME280;11831;55.918;37.746;2023-04-05T09:29:41;99790.53;;;14.77;0.00
23318;BME280;11831;55.918;37.746;2023-04-05T09:32:08;99791.47;;;14.87;0.00
23318;BME280;11831;55.918;37.746;2023-04-05T09:34:35;99798.03;;;14.58;0.00
23318;BME280;11831;55.918;37.746;2023-04-05T09:37:02;99790.19;;;14.73;0.00
23318;BME280;11831;55.918;37.746;2023-04-05T09:39:38;99795.56;;;14.40;0.00
23318;BME280;11831;55.918;37.746;2023-04-05T09:42:07;99799.69;;;14.14;0.00
23318;BME280;11831;55.918;37.746;2023-04-05T09:44:52;99800.44;;;14.93;0.00
23318;BME280;11831;55.918;37.746;2023-04-05T09:47:20;99791.59;;;14.76;0.00
23318;BME280;11831;55.918;37.746;2023-04-05T09:49:46;99792.56;;;14.70;0.00
23318;BME280;11831;55.918;37.746;2023-04-05T09:52:26;99794.47;;;15.30;0.00
23318;BME280;11831;55.918;37.746;2023-04-05T09:54:54;99795.34;;;15.57;0.00
23318;BME280;11831;55.918;37.746;2023-04-05T09:57:21;99786.16;;;15.31;0.00
23318;BME280;11831;55.918;37.746;2023-04-05T09:59:48;99785.00;;;15.27;0.00
23318;BME280;11831;55.918;37.746;2023-04-05T10:02:14;99788.66;;;14.99;0.00
23318;BME280;11831;55.918;37.746;2023-04-05T10:04:41;99793.34;;;15.04;0.00
23318;BME280;11831;55.918;37.746;2023-04-05T10:07:08;99782.56;;;14.48;0.00
23318;BME280;11831;55.918;37.746;2023-04-05T10:09:34;99795.16;;;14.65;0.00
23318;BME280;11831;55.918;37.746;2023-04-05T10:12:01;99795.84;;;15.10;0.00
23318;BME280;11831;55.918;37.746;2023-04-05T10:14:27;99793.47;;;14.58;0.00
23318;BME280;11831;55.918;37.746;2023-04-05T10:17:15;99798.91;;;14.64;0.00
23318;BME280;11831;55.918;37.746;2023-04-05T10:23:07;99793.72;;;14.57;0.00
23318;BME280;11831;55.918;37.746;2023-04-05T10:28:03;99810.03;;;14.22;0.00
23318;BME280;11831;55.918;37.746;2023-04-05T10:30:32;99798.38;;;14.45;0.00
23318;BME280;11831;55.918;37.746;2023-04-05T10:38:19;99803.97;;;15.15;0.00
23318;BME280;11831;55.918;37.746;2023-04-05T10:40:46;99806.16;;;14.63;0.00
23318;BME280;11831;55.918;37.746;2023-04-05T10:43:15;99809.47;;;15.42;0.00
23318;BME280;11831;55.918;37.746;2023-04-05T10:45:43;99801.31;;;15.37;0.00
23318;BME280;11831;55.918;37.746;2023-04-05T10:48:15;99797.44;;;14.39;0.00
23318;BME280;11831;55.918;37.746;2023-04-05T10:50:44;99795.91;;;15.15;0.00
23318;BME280;11831;55.918;37.746;2023-04-05T10:53:12;99791.72;;;14.69;0.00
23318;BME280;11831;55.918;37.746;2023-04-05T10:55:38;99796.81;;;14.49;0.00
23318;BME280;11831;55.918;37.746;2023-04-05T10:58:04;99798.62;;;14.43;0.00
23318;BME280;11831;55.918;37.746;2023-04-05T11:00:31;99798.81;;;14.25;0.00
23318;BME280;11831;55.918;37.746;2023-04-05T11:02:58;99796.41;;;14.57;0.00
23318;BME280;11831;55.918;37.746;2023-04-05T11:05:41;99793.22;;;15.37;0.00
23318;BME280;11831;55.918;37.746;2023-04-05T11:08:08;99800.41;;;15.53;0.00
23318;BME280;11831;55.918;37.746;2023-04-05T11:10:37;99800.34;;;15.27;0.00
23318;BME280;11831;55.918;37.746;2023-04-05T11:13:05;99793.47;;;15.79;0.00
23318;BME280;11831;55.918;37.746;2023-04-05T11:15:32;99801.19;;;15.49;0.00
23318;BME280;11831;55.918;37.746;2023-04-05T11:18:09;99795.63;;;15.34;0.00
23318;BME280;11831;55.918;37.746;2023-04-05T11:23:12;99799.22;;;16.15;0.00
23318;BME280;11831;55.918;37.746;2023-04-05T11:25:39;99780.81;;;16.39;0.00
23318;BME280;11831;55.918;37.746;2023-04-05T11:28:06;99791.12;;;16.15;0.00
23318;BME280;11831;55.918;37.746;2023-04-05T11:33:33;99795.47;;;17.32;0.00
23318;BME280;11831;55.918;37.746;2023-04-05T11:35:59;99793.63;;;16.54;0.00
23318;BME280;11831;55.918;37.746;2023-04-05T11:38:25;99790.31;;;16.79;0.00
23318;BME280;11831;55.918;37.746;2023-04-05T11:40:51;99789.13;;;16.64;0.00
23318;BME280;11831;55.918;37.746;2023-04-05T11:43:30;99785.38;;;17.13;0.00
23318;BME280;11831;55.918;37.746;2023-04-05T11:45:56;99784.72;;;17.43;0.00
23318;BME280;11831;55.918;37.746;2023-04-05T11:48:22;99778.69;;;17.88;0.00
23318;BME280;11831;55.918;37.746;2023-04-05T11:50:48;99780.56;;;17.97;0.00
23318;BME280;11831;55.918;37.746;2023-04-05T11:53:16;99782.47;;;17.82;0.00
23318;BME280;11831;55.918;37.746;2023-04-05T11:55:43;99779.22;;;17.80;0.00
23318;BME280;11831;55.918;37.746;2023-04-05T11:58:13;99780.34;;;18.65;0.00
23318;BME280;11831;55.918;37.746;2023-04-05T12:00:40;99772.75;;;18.26;0.00
23318;BME280;11831;55.918;37.746;2023-04-05T12:03:10;99765.59;;;19.22;0.00
23318;BME280;11831;55.918;37.746;2023-04-05T12:05:49;99766.28;;;18.43;0.00
23318;BME280;11831;55.918;37.746;2023-04-05T12:08:18;99772.50;;;18.79;0.00
23318;BME280;11831;55.918;37.746;2023-04-05T12:10:57;99762.91;;;19.17;0.00
23318;BME280;11831;55.918;37.746;2023-04-05T12:13:26;99762.56;;;19.39;0.00
23318;BME280;11831;55.918;37.746;2023-04-05T12:15:56;99762.75;;;18.78;0.00
23318;BME280;11831;55.918;37.746;2023-04-05T12:18:23;99758.03;;;19.14;0.00
23318;BME280;11831;55.918;37.746;2023-04-05T12:20:50;99763.28;;;18.65;0.00
23318;BME280;11831;55.918;37.746;2023-04-05T12:23:16;99759.81;;;19.44;0.00
23318;BME280;11831;55.918;37.746;2023-04-05T12:25:45;99769.50;;;19.65;0.00
23318;BME280;11831;55.918;37.746;2023-04-05T12:28:11;99760.69;;;19.24;0.00
23318;BME280;11831;55.918;37.746;2023-04-05T12:30:46;99754.78;;;19.76;0.00
23318;BME280;11831;55.918;37.746;2023-04-05T12:33:12;99762.84;;;19.27;0.00
23318;BME280;11831;55.918;37.746;2023-04-05T12:35:38;99761.34;;;20.09;0.00
23318;BME280;11831;55.918;37.746;2023-04-05T12:38:05;99757.78;;;19.10;0.00
23318;BME280;11831;55.918;37.746;2023-04-05T12:40:32;99761.91;;;19.67;0.00
23318;BME280;11831;55.918;37.746;2023-04-05T12:43:02;99762.75;;;19.52;0.00
23318;BME280;11831;55.918;37.746;2023-04-05T12:45:31;99761.12;;;19.57;0.00
23318;BME280;11831;55.918;37.746;2023-04-05T12:48:08;99761.12;;;19.62;0.00
23318;BME280;11831;55.918;37.746;2023-04-05T12:50:35;99764.34;;;20.47;0.00
23318;BME280;11831;55.918;37.746;2023-04-05T12:53:06;99752.28;;;20.24;0.00
23318;BME280;11831;55.918;37.746;2023-04-05T12:55:37;99762.56;;;19.93;0.00
23318;BME280;11831;55.918;37.746;2023-04-05T12:58:03;99758.69;;;20.38;0.00
23318;BME280;11831;55.918;37.746;2023-04-05T13:00:30;99761.31;;;20.77;0.00
23318;BME280;11831;55.918;37.746;2023-04-05T13:02:57;99756.78;;;19.56;0.00
23318;BME280;11831;55.918;37.746;2023-04-05T13:05:27;99759.06;;;19.88;0.00
23318;BME280;11831;55.918;37.746;2023-04-05T13:07:53;99766.44;;;19.77;0.00
23318;BME280;11831;55.918;37.746;2023-04-05T13:10:20;99759.84;;;19.88;0.00
23318;BME280;11831;55.918;37.746;2023-04-05T13:12:47;99758.41;;;20.06;0.00
23318;BME280;11831;55.918;37.746;2023-04-05T13:15:14;99757.81;;;20.09;0.00
23318;BME280;11831;55.918;37.746;2023-04-05T13:17:41;99753.66;;;19.82;0.00
23318;BME280;11831;55.918;37.746;2023-04-05T13:20:07;99762.25;;;19.45;0.00
23318;BME280;11831;55.918;37.746;2023-04-05T13:22:34;99750.41;;;19.31;0.00
23318;BME280;11831;55.918;37.746;2023-04-05T13:25:00;99750.06;;;19.97;0.00
23318;BME280;11831;55.918;37.746;2023-04-05T13:27:28;99754.09;;;20.00;0.00
23318;BME280;11831;55.918;37.746;2023-04-05T13:29:54;99750.78;;;18.99;0.00
23318;BME280;11831;55.918;37.746;2023-04-05T13:32:20;99751.09;;;18.37;0.00
23318;BME280;11831;55.918;37.746;2023-04-05T13:34:46;99733.78;;;18.68;0.00
23318;BME280;11831;55.918;37.746;2023-04-05T13:37:13;99748.66;;;17.94;0.00
23318;BME280;11831;55.918;37.746;2023-04-05T13:39:40;99758.16;;;18.07;0.00
23318;BME280;11831;55.918;37.746;2023-04-05T13:42:06;99760.31;;;18.46;0.00
23318;BME280;11831;55.918;37.746;2023-04-05T13:44:32;99755.41;;;17.82;0.00